createdAt,value
2018-08-19T00:21:51.662Z,19.80
2018-08-19T00:24:19.813Z,18.70
2018-08-19T00:26:48.170Z,18.60
2018-08-19T00:29:23.985Z,18.50
2018-08-19T00:31:53.254Z,18.50
2018-08-19T00:34:27.005Z,18.50
2018-08-19T00:36:55.246Z,18.60
2018-08-19T00:39:23.495Z,18.50
2018-08-19T00:41:51.741Z,18.60
2018-08-19T00:44:20.042Z,18.50
2018-08-19T00:46:48.374Z,18.50
2018-08-19T00:49:17.614Z,18.40
2018-08-19T00:51:51.112Z,18.40
2018-08-19T00:54:19.418Z,18.40
2018-08-19T00:56:49.566Z,18.30
2018-08-19T00:59:17.814Z,18.30
2018-08-19T01:01:46.179Z,18.30
2018-08-19T01:04:14.481Z,18.20
2018-08-19T01:06:48.123Z,18.20
2018-08-19T01:09:16.362Z,18.10
2018-08-19T01:11:44.658Z,18.10
2018-08-19T01:14:15.578Z,18.00
2018-08-19T01:16:43.879Z,18.00
2018-08-19T01:19:12.127Z,18.00
2018-08-19T01:21:40.434Z,18.00
2018-08-19T01:24:09.838Z,18.00
2018-08-19T01:26:39.122Z,17.90
2018-08-19T01:29:08.502Z,17.90
2018-08-19T01:58:56.411Z,17.80
2018-08-19T02:03:57.096Z,17.30
2018-08-19T02:06:25.330Z,17.30
2018-08-19T02:08:53.571Z,17.20
2018-08-19T02:11:30.263Z,17.20
2018-08-19T02:13:58.481Z,17.20
2018-08-19T02:16:26.708Z,17.10
2018-08-19T02:33:47.072Z,17.20
2018-08-19T02:36:15.292Z,17.00
2018-08-19T02:38:43.599Z,16.90
2018-08-19T02:41:11.820Z,17.00
2018-08-19T02:43:49.732Z,17.00
2018-08-19T02:46:18.080Z,17.00
2018-08-19T02:48:47.860Z,17.00
2018-08-19T02:51:17.206Z,17.00
2018-08-19T02:53:47.656Z,17.00
2018-08-19T02:56:16.625Z,17.00
2018-08-19T02:58:45.836Z,17.00
2018-08-19T03:01:15.203Z,17.00
2018-08-19T03:03:43.424Z,17.00
2018-08-19T03:06:11.630Z,17.00
2018-08-19T03:08:44.484Z,17.00
2018-08-19T03:11:13.651Z,16.90
2018-08-19T03:13:41.855Z,16.90
2018-08-19T03:16:10.112Z,16.80
2018-08-19T03:18:38.412Z,16.80
2018-08-19T03:21:06.756Z,16.80
2018-08-19T03:23:35.060Z,16.80
2018-08-19T03:26:03.280Z,16.80
2018-08-19T03:28:31.554Z,16.80
2018-08-19T03:31:01.072Z,16.80
2018-08-19T03:33:29.454Z,16.70
2018-08-19T03:35:57.720Z,16.70
2018-08-19T03:38:27.080Z,16.70
2018-08-19T03:40:56.268Z,16.60
2018-08-19T03:43:24.509Z,16.60
2018-08-19T03:45:52.748Z,16.50
2018-08-19T03:48:20.985Z,16.50
2018-08-19T03:50:49.217Z,16.60
2018-08-19T03:53:17.445Z,16.60
2018-08-19T03:55:45.657Z,16.80
2018-08-19T03:58:13.880Z,16.80
2018-08-19T04:00:44.369Z,16.80
2018-08-19T04:03:31.031Z,16.80
2018-08-19T04:06:00.354Z,16.80
2018-08-19T04:08:33.331Z,16.70
2018-08-19T04:11:04.667Z,16.70
2018-08-19T04:13:41.569Z,16.70
2018-08-19T04:16:10.872Z,16.60
2018-08-19T04:18:45.136Z,16.50
2018-08-19T04:21:14.475Z,16.50
2018-08-19T04:23:44.399Z,16.50
2018-08-19T04:26:12.615Z,16.40
2018-08-19T04:28:42.030Z,16.40
2018-08-19T04:31:15.736Z,16.40
2018-08-19T04:33:45.448Z,16.40
2018-08-19T04:36:15.444Z,16.40
2018-08-19T04:38:43.843Z,16.50
2018-08-19T04:41:12.580Z,16.50
2018-08-19T04:43:40.851Z,16.60
2018-08-19T04:46:09.108Z,16.60
2018-08-19T04:48:37.436Z,16.60
2018-08-19T04:51:05.680Z,16.70
2018-08-19T04:53:34.568Z,16.70
2018-08-19T04:56:02.804Z,16.70
2018-08-19T04:58:31.063Z,16.70
2018-08-19T05:00:59.440Z,16.80
2018-08-19T05:03:27.739Z,16.80
2018-08-19T05:05:57.849Z,16.90
2018-08-19T05:08:26.436Z,16.90
2018-08-19T05:10:54.464Z,16.90
2018-08-19T05:13:22.649Z,16.90
2018-08-19T05:15:50.836Z,17.10
2018-08-19T05:18:19.104Z,17.30
2018-08-19T05:20:47.432Z,17.50
2018-08-19T05:23:15.628Z,17.70
2018-08-19T05:25:49.316Z,17.80
2018-08-19T05:28:17.938Z,17.90
2018-08-19T05:30:46.696Z,18.00
2018-08-19T05:33:15.032Z,18.00
2018-08-19T05:35:43.608Z,18.00
2018-08-19T05:38:12.269Z,17.90
2018-08-19T05:41:13.077Z,17.80
2018-08-19T05:43:41.336Z,17.80
2018-08-19T05:46:09.629Z,17.80
2018-08-19T05:48:38.301Z,17.80
2018-08-19T05:51:06.701Z,17.80
2018-08-19T05:53:34.961Z,17.80
2018-08-19T06:23:14.314Z,17.80
2018-08-19T06:25:42.572Z,18.30
2018-08-19T06:28:10.920Z,18.50
2018-08-19T06:30:39.261Z,18.70
2018-08-19T06:33:07.514Z,18.80
2018-08-19T06:35:35.807Z,18.80
2018-08-19T06:38:04.139Z,18.90
2018-08-19T06:40:32.353Z,18.90
2018-08-19T06:43:00.734Z,19.00
2018-08-19T06:55:25.148Z,19.60
2018-08-19T06:57:57.977Z,19.80
2018-08-19T07:00:27.506Z,20.10
2018-08-19T07:02:57.393Z,20.10
2018-08-19T07:05:25.613Z,20.20
2018-08-19T07:07:53.974Z,20.20
2018-08-19T07:10:41.229Z,20.30
2018-08-19T07:13:13.322Z,20.20
2018-08-19T07:15:42.625Z,20.60
2018-08-19T07:18:12.975Z,21.00
2018-08-19T07:20:41.978Z,21.10
2018-08-19T07:23:10.869Z,21.40
2018-08-19T07:25:40.945Z,21.60
2018-08-19T07:28:10.104Z,21.70
2018-08-19T07:30:38.694Z,21.80
2018-08-19T07:33:07.082Z,22.00
2018-08-19T07:35:35.338Z,22.10
2018-08-19T07:38:03.787Z,21.80
2018-08-19T07:40:32.250Z,21.80
2018-08-19T07:43:00.468Z,21.80
2018-08-19T07:45:28.846Z,21.90
2018-08-19T07:47:57.222Z,21.90
2018-08-19T07:50:25.712Z,22.20
2018-08-19T07:52:54.267Z,22.30
2018-08-19T07:55:22.468Z,22.30
2018-08-19T07:57:50.735Z,22.60
2018-08-19T08:00:24.530Z,23.00
2018-08-19T08:02:53.951Z,23.00
2018-08-19T08:05:22.417Z,22.70
2018-08-19T08:07:50.986Z,22.90
2018-08-19T08:10:19.221Z,23.10
2018-08-19T08:12:54.121Z,23.20
2018-08-19T08:15:22.612Z,23.30
2018-08-19T08:17:50.818Z,22.80
2018-08-19T08:20:19.045Z,22.90
2018-08-19T08:22:47.242Z,23.10
2018-08-19T08:25:15.482Z,23.20
2018-08-19T08:27:43.759Z,23.10
2018-08-19T08:30:12.578Z,22.80
2018-08-19T08:32:43.351Z,22.50
2018-08-19T08:35:11.550Z,22.50
2018-08-19T08:37:41.717Z,22.40
2018-08-19T08:40:11.076Z,22.40
2018-08-19T08:42:41.486Z,22.10
2018-08-19T08:45:10.938Z,22.50
2018-08-19T08:47:39.260Z,23.00
2018-08-19T09:04:56.868Z,23.10
2018-08-19T09:07:26.725Z,22.70
2018-08-19T09:09:54.899Z,23.20
2018-08-19T09:12:34.512Z,23.50
2018-08-19T09:15:02.728Z,23.20
2018-08-19T09:17:30.924Z,23.00
2018-08-19T09:19:59.180Z,23.10
2018-08-19T09:22:27.375Z,23.40
2018-08-19T09:24:55.592Z,23.70
2018-08-19T09:27:23.856Z,23.50
2018-08-19T09:29:52.067Z,23.20
2018-08-19T09:32:20.288Z,23.10
2018-08-19T09:34:48.499Z,22.80
2018-08-19T09:37:16.702Z,23.10
2018-08-19T09:39:44.936Z,22.90
2018-08-19T09:42:13.628Z,22.90
2018-08-19T09:44:43.500Z,22.90
2018-08-19T09:47:11.751Z,23.40
2018-08-19T09:49:40.136Z,24.00
2018-08-19T09:52:08.336Z,24.00
2018-08-19T09:54:37.636Z,23.90
2018-08-19T09:57:06.904Z,23.90
2018-08-19T09:59:35.122Z,23.50
2018-08-19T10:02:07.482Z,23.30
2018-08-19T10:04:35.756Z,23.20
2018-08-19T10:07:09.336Z,23.20
2018-08-19T10:09:37.600Z,23.40
2018-08-19T10:12:05.924Z,23.90
2018-08-19T10:14:34.157Z,24.30
2018-08-19T10:17:02.387Z,24.40
2018-08-19T10:19:31.072Z,24.50
2018-08-19T10:21:59.308Z,24.70
2018-08-19T10:24:29.764Z,25.00
2018-08-19T10:26:58.368Z,24.90
2018-08-19T10:29:26.589Z,24.80
2018-08-19T10:31:59.447Z,24.70
2018-08-19T10:34:30.713Z,24.20
2018-08-19T10:36:59.819Z,24.10
2018-08-19T10:39:28.144Z,24.50
2018-08-19T10:42:16.973Z,24.90
2018-08-19T10:44:46.380Z,25.00
2018-08-19T10:47:14.597Z,25.10
2018-08-19T10:49:43.544Z,25.00
2018-08-19T10:52:16.057Z,25.20
2018-08-19T10:54:45.789Z,25.50
2018-08-19T10:57:18.248Z,25.60
2018-08-19T10:59:47.011Z,25.30
2018-08-19T11:02:15.229Z,25.20
2018-08-19T11:04:43.460Z,25.50
2018-08-19T11:07:11.720Z,25.90
2018-08-19T11:09:51.301Z,25.90
2018-08-19T11:12:19.509Z,26.10
2018-08-19T11:14:47.724Z,26.40
2018-08-19T11:17:16.009Z,26.20
2018-08-19T11:19:44.261Z,26.30
2018-08-19T11:22:12.469Z,26.40
2018-08-19T11:24:40.699Z,26.60
2018-08-19T11:27:08.976Z,26.80
2018-08-19T11:29:39.196Z,26.80
2018-08-19T11:32:07.413Z,26.60
2018-08-19T11:34:35.773Z,26.70
2018-08-19T11:37:04.005Z,26.90
2018-08-19T11:39:37.630Z,27.20
2018-08-19T11:42:05.850Z,26.90
2018-08-19T11:44:35.164Z,27.00
2018-08-19T11:47:03.449Z,26.90
2018-08-19T11:49:31.666Z,26.80
2018-08-19T11:52:02.334Z,26.60
2018-08-19T11:54:31.249Z,27.20
2018-08-19T12:07:13.674Z,27.00
2018-08-19T12:52:26.755Z,26.80
2018-08-19T13:14:48.524Z,28.00
2018-08-19T13:17:16.767Z,28.20
2018-08-19T13:20:09.481Z,28.00
2018-08-19T13:22:47.967Z,28.10
2018-08-19T13:25:16.491Z,28.10
2018-08-19T13:27:44.678Z,27.80
2018-08-19T13:30:13.043Z,27.60
2018-08-19T13:32:41.263Z,27.70
2018-08-19T13:35:09.479Z,28.00
2018-08-19T13:37:37.705Z,28.30
2018-08-19T13:40:07.187Z,28.60
2018-08-19T13:42:35.431Z,28.40
2018-08-19T13:45:09.008Z,28.20
2018-08-19T13:47:37.219Z,28.20
2018-08-19T13:50:06.197Z,28.20
2018-08-19T13:52:34.444Z,28.20
2018-08-19T13:55:03.788Z,28.70
2018-08-19T13:57:32.020Z,28.50
2018-08-19T14:00:00.256Z,28.50
2018-08-19T14:02:28.480Z,28.40
2018-08-19T14:04:56.684Z,28.20
2018-08-19T14:07:24.920Z,28.10
2018-08-19T14:09:53.141Z,27.90
2018-08-19T14:12:21.422Z,28.20
2018-08-19T14:14:49.632Z,28.10
2018-08-19T14:17:17.916Z,28.00
2018-08-19T14:19:46.114Z,28.00
2018-08-19T14:22:14.532Z,28.20
2018-08-19T14:24:42.780Z,28.20
2018-08-19T14:27:10.996Z,28.00
2018-08-19T14:29:39.256Z,27.70
2018-08-19T14:32:17.472Z,28.10
2018-08-19T14:34:45.712Z,28.40
2018-08-19T14:37:14.009Z,28.20
2018-08-19T14:39:42.274Z,28.10
2018-08-19T14:42:10.548Z,28.10
2018-08-19T15:36:48.361Z,27.90
2018-08-19T16:23:51.918Z,27.20
2018-08-19T16:26:20.161Z,26.80
2018-08-19T16:28:48.358Z,26.80
2018-08-19T17:03:31.902Z,26.60
2018-08-19T17:06:00.237Z,26.00
2018-08-19T17:08:28.599Z,25.90
2018-08-19T17:10:57.011Z,26.00
2018-08-19T17:13:26.055Z,25.90
2018-08-19T18:47:50.193Z,25.70
2018-08-19T18:50:21.069Z,24.80
2018-08-19T18:52:52.953Z,24.60
2018-08-19T18:55:21.552Z,24.60
2018-08-19T18:57:50.724Z,24.50
